Terminal Aerodrome Forecast
Issued by NWS

Home | Current Version | Previous Version | Text Only | Print | Product List | Glossary On
Versions: 1 2 3 4 5 6 7 8 9 10 11 12 13 14 15 16 17 18 19 20 21 22 23 24 25
000
FTUS43 KGLD 191120
TAFMCK
TAF
KMCK 191120Z 1912/2012 VRB05KT P6SM SCT200
     FM191500 10010KT P6SM SCT200
     FM191800 12012KT P6SM SCT050 SCT200
     FM192100 14015G23KT P6SM SCT070 BKN200
     FM200100 14011KT P6SM SCT120 BKN200=

USA.gov is the U.S. government's official web portal to all federal, state and local government web resources and services.